Monterey Park, CA (91756)

6:54 AM PDT on August 21, 2014 (GMT -0700)
Hillcrest | Change Station
CLOSE
Current Station
Personal Weather Station
Location: Monterey Park, CA
Elevation: 495 ft
Nearby Weather Stations

Elev 495 ft 34.05 °N, 118.11 °W | Updated 9 minutes ago

Clear
Clear
64.4 °F
Feels Like 64.4 °F
N
3.2
Wind Variable Wind from West

Today
High -- | Low -- °F
--% Chance of Precip.
Yesterday
High -- | Low -- °F
Precip. -- in
6:18 AM 7:32 PM
Waning Crescent, 14% visible
Pressure 29.93 in
Visibility 10.0 miles
Clouds Clear
Dew Point 62 °F
Humidity 92%
Rainfall 0.00 in
Snow Depth Not available.
UV 0 out of 12
Pollen 5.40 out of 12
Air Quality Not available.
Flu Activity Not available.
METAR KCQT 211347Z AUTO 00000KT 10SM CLR 19/16 A2993 RMK AO2 SLP133 T01890161

More Conditions Fewer Conditions

Pressure 29.93 in
Visibility 10.0 miles
Clouds Clear
Dew Point 62 °F
Humidity 92%
Rainfall 0.00 in
Snow Depth Not available.
UV 0 out of 12
Pollen 5.40 out of 12
Air Quality Not available.
Flu Activity Not available.
METAR KCQT 211347Z AUTO 00000KT 10SM CLR 19/16 A2993 RMK AO2 SLP133 T01890161

More Conditions Fewer Conditions

10-Day Weather Forecast

Almanac

Astronomy

Aug. 21, 2014 Rise Set
Actual Time 6:18 AM PDT 7:32 PM PDT
Civil Twilight 5:52 AM PDT 7:58 PM PDT
Nautical Twilight 5:21 AM PDT 8:29 PM PDT
Astronomical Twilight 4:48 AM PDT 9:01 PM PDT
Moon 2:57 AM PDT 5:00 PM PDT
Length of Visible Light 14h 05m
Length of Day
13h 13m
Tomorrow will be 1m 56s shorter.
Waning Crescent, 14% of the Moon is Illuminated
Today
Waning Crescent
Aug 25
New
Sep 2
First Quarter
Sep 8
Full
Sep 15
Last Quarter

Today's Extremes

State Highs State Lows

Community

WunderPhotos

Upload Photos

1,745,918 photos uploaded!

WunderBlogs® & News

Nearby

Air Quality

  Air Quality AQ Index Pollutant
Yesterday Good
OZONE
Thursday Good
PM10
Thursday Good
OZONE
Thursday Good
CO
Thursday Good
NO2

Snow Depth

Station Depth Elevation
Leavitt Lake 0 in 9400 ft
Leavitt Meadows 1 in 7200 ft
Summit Meadow 1 in 9122 ft
Monitor Pass 1 in 8350 ft
Blue Lakes 0 in 8000 ft

Earthquake Activity

City Distance Mag. Time & Date
Malibu Beach, California 34 miles 3.4 10:03 AM PDT
2014-08-15
Yucca Valley, California 98 miles 3.8 8:57 PM PDT
2014-08-14
Minimum magnitude displayed is 2.5.

Coastal Water Temperatures

Place Temperature
Santa Monica Pier 71.1 °F
Los Angeles, CA 68.0 °F
La Jolla, CA 73.0 °F

Nearby Weather Stations